Time;durP1;ratioP1;P1;durP2;ratioP2;P2;SDS_P1;SDS_P2;PMS_P1;PMS_P2;Temp;Humidity;BMP_temperature;BMP_pressure;BME280_temperature;BME280_humidity;BME280_pressure;Samples;Min_cycle;Max_cycle;Signal;HPM_P1;HPM_P2
2023/02/19 00:01:03;;;;;;;3.63;3.33;;;;;;;7.94;100.00;96103.38;5030600;28;20265;-78
2023/02/19 00:03:28;;;;;;;3.57;3.27;;;;;;;8.00;100.00;96094.34;5009852;28;20239;-77
2023/02/19 00:05:53;;;;;;;4.27;3.93;;;;;;;7.95;100.00;96105.03;5018584;28;20195;-77
2023/02/19 00:08:19;;;;;;;3.50;3.20;;;;;;;7.97;100.00;96086.81;5020272;28;20361;-78
2023/02/19 00:10:44;;;;;;;3.50;3.20;;;;;;;7.93;100.00;96097.38;5009122;28;20194;-77
2023/02/19 00:13:09;;;;;;;3.60;3.30;;;;;;;7.97;100.00;96094.59;5031621;28;20252;-78
2023/02/19 00:15:35;;;;;;;3.30;3.00;;;;;;;7.90;100.00;96089.06;5033978;28;20190;-78
2023/02/19 00:18:00;;;;;;;3.70;3.40;;;;;;;7.88;100.00;96085.78;5030068;28;20623;-78
2023/02/19 00:20:25;;;;;;;3.20;3.00;;;;;;;7.79;100.00;96076.13;5025203;28;20187;-78
2023/02/19 00:22:50;;;;;;;3.87;3.57;;;;;;;7.66;100.00;96078.81;5002309;28;20622;-78
2023/02/19 00:25:16;;;;;;;3.00;2.80;;;;;;;7.78;100.00;96079.66;5003528;28;20203;-78
2023/02/19 00:27:41;;;;;;;3.20;2.90;;;;;;;7.82;100.00;96086.22;5009311;28;20183;-78
2023/02/19 00:30:07;;;;;;;3.50;3.20;;;;;;;7.86;100.00;96085.03;5030991;28;20194;-78
2023/02/19 00:32:32;;;;;;;3.60;3.30;;;;;;;7.90;100.00;96084.69;5015484;28;20192;-78
2023/02/19 00:34:57;;;;;;;3.97;3.63;;;;;;;7.95;100.00;96081.75;5029507;28;20289;-78
2023/02/19 00:37:23;;;;;;;3.03;2.77;;;;;;;7.69;100.00;96072.63;5024719;28;20190;-78
2023/02/19 00:39:48;;;;;;;3.00;2.80;;;;;;;7.70;100.00;96080.25;5002762;28;20301;-78
2023/02/19 00:42:13;;;;;;;2.70;2.50;;;;;;;7.79;100.00;96078.72;5024304;28;20206;-78
2023/02/19 00:44:39;;;;;;;2.80;2.60;;;;;;;7.74;100.00;96076.47;5009533;28;20276;-78
2023/02/19 00:47:04;;;;;;;2.90;2.70;;;;;;;7.72;100.00;96077.53;5026102;28;20200;-78
2023/02/19 00:49:30;;;;;;;2.77;2.57;;;;;;;7.76;100.00;96073.75;5019883;28;20195;-78
2023/02/19 00:51:55;;;;;;;2.50;2.30;;;;;;;7.70;100.00;96058.75;5032223;28;20194;-77
2023/02/19 00:54:21;;;;;;;2.60;2.40;;;;;;;7.71;100.00;96060.38;5025148;28;20215;-78
2023/02/19 00:56:47;;;;;;;2.20;2.00;;;;;;;7.80;100.00;96067.44;5003228;28;20187;-78
2023/02/19 00:59:13;;;;;;;2.17;1.97;;;;;;;7.74;100.00;96060.97;5018905;28;20195;-78
2023/02/19 01:01:38;;;;;;;2.50;2.30;;;;;;;7.78;100.00;96040.88;5025535;28;20216;-79
2023/02/19 01:04:04;;;;;;;2.60;2.40;;;;;;;7.65;100.00;96052.16;5012701;28;20214;-78
2023/02/19 01:06:31;;;;;;;2.67;2.47;;;;;;;7.72;100.00;96055.09;5004901;28;20187;-78
2023/02/19 01:08:56;;;;;;;2.80;2.60;;;;;;;7.72;100.00;96051.69;5031239;28;20186;-78
2023/02/19 01:11:21;;;;;;;2.43;2.23;;;;;;;7.78;100.00;96051.22;5028835;28;20186;-78
2023/02/19 01:13:47;;;;;;;2.40;2.20;;;;;;;7.67;100.00;96045.09;5034415;28;20202;-78
2023/02/19 01:16:17;;;;;;;2.40;2.20;;;;;;;7.70;100.00;96043.22;5032930;28;20273;-78
2023/02/19 01:18:42;;;;;;;2.97;2.37;;;;;;;7.84;100.00;96042.97;5011874;28;20248;-78
2023/02/19 01:21:12;;;;;;;2.30;2.10;;;;;;;7.81;100.00;96040.63;5023555;28;20274;-78
2023/02/19 01:23:37;;;;;;;2.30;2.10;;;;;;;7.86;100.00;96038.50;5015051;28;20564;-78
2023/02/19 01:26:05;;;;;;;2.43;2.23;;;;;;;7.80;100.00;96041.56;5005767;28;20262;-78
2023/02/19 01:28:30;;;;;;;2.20;2.10;;;;;;;7.77;100.00;96031.44;5010745;28;20224;-78
2023/02/19 01:30:59;;;;;;;2.20;2.00;;;;;;;7.72;100.00;96034.41;5034123;28;20190;-78
2023/02/19 01:33:25;;;;;;;1.87;1.77;;;;;;;7.75;100.00;96034.16;5033056;28;20230;-78
2023/02/19 01:35:50;;;;;;;1.70;1.60;;;;;;;7.82;100.00;96043.09;5026142;28;20278;-78
2023/02/19 01:38:15;;;;;;;2.03;1.93;;;;;;;7.81;100.00;96044.03;5030910;28;20252;-78
2023/02/19 01:40:40;;;;;;;2.50;1.40;;;;;;;7.96;100.00;96044.63;5018219;28;20190;-78
2023/02/19 01:43:14;;;;;;;1.50;1.40;;;;;;;7.88;100.00;96049.56;5007769;28;20215;-78
2023/02/19 01:45:43;;;;;;;1.10;1.00;;;;;;;7.92;100.00;96045.78;5010575;28;20191;-78
2023/02/19 01:48:25;;;;;;;1.33;1.23;;;;;;;7.92;100.00;96043.19;5017845;28;20191;-78
2023/02/19 01:50:53;;;;;;;0.97;0.87;;;;;;;7.81;100.00;96045.81;5036629;28;20643;-78
2023/02/19 01:53:22;;;;;;;1.43;0.80;;;;;;;7.88;100.00;96036.63;5027796;28;20703;-78
2023/02/19 01:55:50;;;;;;;0.90;0.80;;;;;;;7.91;100.00;96039.78;5019021;28;20282;-78
2023/02/19 01:58:15;;;;;;;1.03;0.97;;;;;;;7.97;100.00;96046.25;5006187;28;20187;-78
2023/02/19 02:00:40;;;;;;;1.17;1.07;;;;;;;8.07;100.00;96049.78;5013871;28;20557;-78
2023/02/19 02:03:06;;;;;;;0.80;0.80;;;;;;;7.92;100.00;96038.03;5028506;28;20233;-78
2023/02/19 02:06:09;;;;;;;0.90;0.90;;;;;;;7.94;100.00;96047.31;5022119;28;20191;-78
2023/02/19 02:11:19;;;;;;;1.03;0.93;;;;;;;7.69;100.00;96037.25;5028753;28;20186;-78
2023/02/19 02:13:45;;;;;;;1.50;0.90;;;;;;;7.72;100.00;96031.00;5006318;28;20203;-78
2023/02/19 02:16:35;;;;;;;1.90;1.07;;;;;;;7.74;100.00;96024.75;5006362;28;20201;-78
2023/02/19 02:19:18;;;;;;;1.13;1.10;;;;;;;7.57;100.00;96009.72;5028825;28;20195;-78
2023/02/19 02:21:53;;;;;;;0.90;0.90;;;;;;;7.77;100.00;96013.34;5037236;28;20214;-77
2023/02/19 02:24:24;;;;;;;1.17;0.90;;;;;;;7.55;100.00;96009.03;5034486;28;20202;-77
2023/02/19 02:27:08;;;;;;;1.00;0.90;;;;;;;7.66;100.00;96007.25;5027116;28;20744;-79
2023/02/19 02:30:03;;;;;;;0.53;0.53;;;;;;;7.64;100.00;95995.41;5044538;28;20190;-76
2023/02/19 02:32:42;;;;;;;1.23;0.80;;;;;;;7.70;100.00;95994.13;5018272;28;20190;-77
2023/02/19 02:35:09;;;;;;;0.70;0.70;;;;;;;7.71;100.00;95995.75;5021022;28;20178;-75
2023/02/19 02:37:38;;;;;;;0.70;0.70;;;;;;;7.73;100.00;95994.69;5022214;28;20179;-77
2023/02/19 02:40:04;;;;;;;0.50;0.50;;;;;;;7.69;100.00;96006.22;5016951;28;20203;-77
2023/02/19 02:42:32;;;;;;;1.63;1.00;;;;;;;7.72;100.00;96005.97;5019117;28;20292;-77
2023/02/19 02:45:36;;;;;;;0.60;0.60;;;;;;;7.61;100.00;96003.41;5023939;28;20207;-77
2023/02/19 02:48:08;;;;;;;0.80;0.80;;;;;;;7.64;100.00;95998.00;5022243;28;20202;-77
2023/02/19 02:50:38;;;;;;;2.57;1.70;;;;;;;7.70;100.00;95992.34;5030563;28;20519;-78
2023/02/19 02:55:59;;;;;;;1.10;0.80;;;;;;;7.60;100.00;95987.06;5030344;28;20589;-77
2023/02/19 02:58:25;;;;;;;0.50;0.50;;;;;;;7.39;100.00;95979.19;5015345;28;20193;-77
2023/02/19 03:03:46;;;;;;;3.40;1.70;;;;;;;7.61;100.00;95978.38;5021016;28;20218;-77
2023/02/19 03:06:14;;;;;;;3.40;1.97;;;;;;;7.73;100.00;95980.94;5015777;28;20282;-77
2023/02/19 03:09:00;;;;;;;1.70;1.20;;;;;;;7.69;100.00;95987.31;5004424;28;20198;-77
2023/02/19 03:19:52;;;;;;;2.50;1.57;;;;;;;7.70;100.00;95973.44;5023102;28;20260;-78
2023/02/19 03:22:21;;;;;;;0.90;0.60;;;;;;;7.54;100.00;95978.97;5000727;28;20211;-77
2023/02/19 03:27:40;;;;;;;0.73;0.73;;;;;;;7.53;100.00;95965.22;5024916;28;20286;-77
2023/02/19 03:30:10;;;;;;;0.90;0.90;;;;;;;7.60;100.00;95957.81;5014271;28;20183;-77
2023/02/19 03:32:41;;;;;;;1.73;1.13;;;;;;;7.64;100.00;95961.78;5016928;28;20183;-77
2023/02/19 03:35:13;;;;;;;1.20;1.07;;;;;;;7.69;100.00;95964.03;5026359;28;20186;-77
2023/02/19 03:38:01;;;;;;;0.70;0.70;;;;;;;7.55;100.00;95963.34;5025598;28;20193;-78
2023/02/19 03:40:28;;;;;;;0.80;0.70;;;;;;;7.40;100.00;95964.50;5011341;28;20206;-78
2023/02/19 03:43:18;;;;;;;1.00;0.93;;;;;;;7.53;100.00;95965.22;5024788;28;20215;-78
2023/02/19 03:45:56;;;;;;;0.80;0.60;;;;;;;7.59;100.00;95966.50;5018193;28;20187;-78
2023/02/19 03:48:27;;;;;;;0.60;0.60;;;;;;;7.49;100.00;95965.56;5019876;28;20243;-78
2023/02/19 03:51:01;;;;;;;0.60;0.50;;;;;;;7.53;100.00;95970.38;5016639;28;20291;-78
2023/02/19 03:53:54;;;;;;;0.50;0.50;;;;;;;7.51;100.00;95969.69;5027334;28;20234;-77
2023/02/19 03:56:32;;;;;;;0.90;0.70;;;;;;;7.39;100.00;95973.19;5019424;28;20268;-77
2023/02/19 03:58:57;;;;;;;0.73;0.70;;;;;;;7.28;100.00;95966.28;5018674;28;20191;-79
2023/02/19 04:01:28;;;;;;;0.87;0.70;;;;;;;7.47;100.00;95970.03;5025731;28;20187;-78
2023/02/19 04:04:02;;;;;;;0.80;0.80;;;;;;;7.45;100.00;95988.25;5035226;28;20222;-78
2023/02/19 04:06:29;;;;;;;0.77;0.77;;;;;;;7.48;100.00;95982.00;5032329;28;20558;-78
2023/02/19 04:08:57;;;;;;;0.60;0.60;;;;;;;7.46;100.00;95986.47;5030192;28;20229;-78
2023/02/19 04:11:23;;;;;;;0.80;0.80;;;;;;;7.44;100.00;96004.69;5025336;28;20647;-78
2023/02/19 04:14:05;;;;;;;1.07;0.90;;;;;;;7.50;100.00;96004.19;5002985;28;20241;-77
2023/02/19 04:16:32;;;;;;;0.77;0.77;;;;;;;7.42;100.00;95993.66;5006474;28;20240;-78
2023/02/19 04:19:04;;;;;;;0.80;0.80;;;;;;;7.37;100.00;95980.25;5019702;28;20195;-78
2023/02/19 04:21:30;;;;;;;0.97;0.90;;;;;;;7.35;100.00;95990.72;5017836;28;20194;-78
2023/02/19 04:23:59;;;;;;;0.70;0.60;;;;;;;7.34;100.00;95989.06;5001225;28;20219;-77
2023/02/19 04:26:25;;;;;;;0.57;0.57;;;;;;;7.35;100.00;95993.28;5004799;28;20194;-78
2023/02/19 04:28:50;;;;;;;0.80;0.80;;;;;;;7.37;100.00;95996.56;5015303;28;20199;-77
2023/02/19 04:31:15;;;;;;;0.70;0.70;;;;;;;7.33;100.00;96004.66;5036786;28;20201;-78
2023/02/19 04:33:41;;;;;;;0.80;0.60;;;;;;;7.29;100.00;96011.00;5016396;28;20247;-78
2023/02/19 04:36:06;;;;;;;0.53;0.53;;;;;;;7.24;100.00;96013.13;5009893;28;20222;-77
2023/02/19 04:38:32;;;;;;;0.70;0.70;;;;;;;7.27;100.00;96002.56;5004138;28;20199;-78
2023/02/19 04:40:57;;;;;;;1.23;0.80;;;;;;;7.20;100.00;96003.97;5003969;28;20254;-78
2023/02/19 04:43:22;;;;;;;0.97;0.70;;;;;;;7.24;100.00;96006.19;5006946;28;20693;-77
2023/02/19 04:45:48;;;;;;;0.67;0.50;;;;;;;7.28;100.00;96017.94;5028429;28;20197;-78
2023/02/19 04:48:13;;;;;;;1.80;0.70;;;;;;;7.22;100.00;96023.56;5018149;28;20202;-78
2023/02/19 04:50:39;;;;;;;0.80;0.80;;;;;;;7.18;100.00;96027.31;5031243;28;20191;-78
2023/02/19 04:53:05;;;;;;;1.00;0.80;;;;;;;7.28;100.00;96022.28;5009596;28;20202;-78
2023/02/19 04:55:30;;;;;;;0.97;0.70;;;;;;;7.23;100.00;96025.22;5018629;28;20659;-78
2023/02/19 04:57:55;;;;;;;0.50;0.50;;;;;;;7.17;100.00;96030.84;5018179;28;20269;-78
2023/02/19 05:00:21;;;;;;;0.60;0.60;;;;;;;7.05;100.00;96026.59;5023809;28;20189;-78
2023/02/19 05:02:46;;;;;;;0.80;0.60;;;;;;;7.21;100.00;96010.78;5029284;28;20198;-78
2023/02/19 05:05:11;;;;;;;1.47;0.70;;;;;;;7.28;100.00;96014.53;5018644;28;20712;-77
2023/02/19 05:07:37;;;;;;;0.60;0.40;;;;;;;7.24;100.00;96026.03;5014882;28;20189;-78
2023/02/19 05:10:02;;;;;;;0.53;0.53;;;;;;;7.12;100.00;96032.13;5027611;28;20261;-78
2023/02/19 05:12:29;;;;;;;0.73;0.50;;;;;;;7.19;100.00;96034.13;5020752;28;20195;-78
2023/02/19 05:14:54;;;;;;;1.63;0.60;;;;;;;7.21;100.00;96034.84;5018371;28;20210;-78
2023/02/19 05:17:19;;;;;;;0.93;0.70;;;;;;;7.17;100.00;96033.44;5025281;28;20569;-78
2023/02/19 05:19:44;;;;;;;0.60;0.60;;;;;;;7.21;100.00;96032.25;5029990;28;20549;-78
2023/02/19 05:22:10;;;;;;;0.70;0.50;;;;;;;7.13;100.00;96019.09;5019577;28;20211;-78
2023/02/19 05:24:35;;;;;;;0.40;0.40;;;;;;;7.14;100.00;96018.16;5016973;28;20272;-77
2023/02/19 05:27:00;;;;;;;0.40;0.40;;;;;;;7.16;100.00;96018.88;5030957;28;20190;-78
2023/02/19 05:29:26;;;;;;;0.37;0.37;;;;;;;7.09;100.00;96015.94;5009355;28;20730;-78
2023/02/19 05:31:51;;;;;;;0.40;0.40;;;;;;;7.01;100.00;96028.59;5025027;28;20178;-78
2023/02/19 05:34:16;;;;;;;0.40;0.40;;;;;;;7.04;100.00;96030.94;5011286;28;20211;-78
2023/02/19 05:36:42;;;;;;;0.30;0.30;;;;;;;7.03;100.00;96025.88;5033274;28;20578;-78
2023/02/19 05:39:08;;;;;;;0.30;0.30;;;;;;;7.06;100.00;96025.66;5039071;28;20179;-78
2023/02/19 05:41:33;;;;;;;0.60;0.60;;;;;;;7.09;100.00;96033.19;5038408;28;20233;-78
2023/02/19 05:43:59;;;;;;;0.50;0.50;;;;;;;7.06;100.00;96046.31;5032186;28;20211;-78
2023/02/19 05:46:26;;;;;;;0.50;0.50;;;;;;;6.98;100.00;96035.72;5008450;28;20261;-78
2023/02/19 05:48:52;;;;;;;0.60;0.60;;;;;;;6.96;100.00;96037.59;5024756;28;20697;-78
2023/02/19 05:51:19;;;;;;;0.93;0.93;;;;;;;6.78;100.00;96039.78;5012838;28;20296;-78
2023/02/19 05:53:45;;;;;;;0.70;0.70;;;;;;;6.99;100.00;96047.72;5035004;28;20248;-78
2023/02/19 05:56:33;;;;;;;0.90;0.90;;;;;;;6.94;100.00;96044.63;5038543;28;20186;-78
2023/02/19 05:59:05;;;;;;;1.10;1.00;;;;;;;6.91;100.00;96050.88;5026394;28;20190;-78
2023/02/19 06:01:30;;;;;;;3.00;1.30;;;;;;;6.95;100.00;96041.94;5030564;28;20213;-78
2023/02/19 06:03:56;;;;;;;1.33;1.23;;;;;;;6.85;100.00;96040.16;5023163;28;20223;-78
2023/02/19 06:06:21;;;;;;;2.40;1.63;;;;;;;6.78;100.00;96032.03;5023372;28;20223;-78
2023/02/19 06:08:49;;;;;;;1.60;1.30;;;;;;;6.91;100.00;96035.38;5028704;28;20191;-78
2023/02/19 06:11:14;;;;;;;2.03;1.83;;;;;;;6.95;100.00;96041.94;5034932;28;20183;-78
2023/02/19 06:13:53;;;;;;;1.90;1.80;;;;;;;6.93;100.00;96036.06;5038163;28;20311;-78
2023/02/19 06:16:18;;;;;;;2.07;1.93;;;;;;;6.89;100.00;96041.56;5025016;28;20256;-78
2023/02/19 06:18:44;;;;;;;1.80;1.70;;;;;;;6.90;100.00;96051.81;5031881;28;20662;-78
2023/02/19 06:21:10;;;;;;;1.90;1.80;;;;;;;6.99;100.00;96058.06;5037784;28;20187;-78
2023/02/19 06:23:36;;;;;;;1.80;1.70;;;;;;;6.96;100.00;96058.25;5037594;28;20210;-78
2023/02/19 06:26:24;;;;;;;2.40;1.93;;;;;;;6.94;100.00;96060.94;5014426;28;20183;-78
2023/02/19 06:28:51;;;;;;;2.33;2.13;;;;;;;6.93;100.00;96063.66;5034914;28;20237;-78
2023/02/19 06:31:18;;;;;;;2.30;2.10;;;;;;;6.86;100.00;96071.00;5020614;28;20230;-78
2023/02/19 06:33:44;;;;;;;2.37;2.20;;;;;;;6.86;100.00;96072.78;5032171;28;20228;-78
2023/02/19 06:36:14;;;;;;;2.20;2.00;;;;;;;6.84;100.00;96085.81;5014687;28;20220;-78
2023/02/19 06:38:40;;;;;;;1.80;1.60;;;;;;;6.91;100.00;96092.19;5020611;28;20225;-78
2023/02/19 06:41:05;;;;;;;2.00;1.80;;;;;;;6.94;100.00;96086.78;5035576;28;20229;-78
2023/02/19 06:43:32;;;;;;;1.50;1.40;;;;;;;6.94;100.00;96097.09;5013959;28;20849;-78
2023/02/19 06:45:58;;;;;;;1.80;1.70;;;;;;;6.85;100.00;96095.19;5003868;28;20187;-77
2023/02/19 06:48:25;;;;;;;2.27;2.07;;;;;;;6.89;100.00;96101.78;5028510;28;20214;-78
2023/02/19 06:50:50;;;;;;;2.50;2.30;;;;;;;6.93;100.00;96095.47;5016419;28;20218;-77
2023/02/19 06:53:15;;;;;;;2.60;2.37;;;;;;;6.96;100.00;96102.97;5028620;28;20207;-78
2023/02/19 06:55:41;;;;;;;2.50;2.30;;;;;;;7.07;100.00;96110.78;5033540;28;20728;-78
2023/02/19 06:58:06;;;;;;;2.20;2.00;;;;;;;6.88;100.00;96117.38;5032963;28;20206;-78
2023/02/19 07:00:32;;;;;;;5.90;1.90;;;;;;;7.00;100.00;96125.06;5028344;28;20623;-78
2023/02/19 07:02:57;;;;;;;2.30;2.10;;;;;;;7.01;100.00;96139.63;5028316;28;20726;-78
2023/02/19 07:05:23;;;;;;;2.40;2.20;;;;;;;7.10;100.00;96144.13;5034793;28;20190;-78
2023/02/19 07:07:48;;;;;;;3.23;2.20;;;;;;;6.97;100.00;96143.34;5013868;28;20768;-78
2023/02/19 07:10:14;;;;;;;2.67;2.27;;;;;;;7.01;100.00;96134.47;5027209;28;20198;-78
2023/02/19 07:12:39;;;;;;;2.80;2.60;;;;;;;7.10;99.87;96138.94;5019342;28;20193;-79
2023/02/19 07:15:05;;;;;;;3.90;2.60;;;;;;;7.06;99.18;96152.19;5020081;28;20182;-79
2023/02/19 07:17:30;;;;;;;3.00;2.77;;;;;;;7.05;99.03;96137.63;5026834;28;20194;-79
2023/02/19 07:19:55;;;;;;;2.57;2.37;;;;;;;7.10;98.71;96140.72;5034095;28;20182;-78
2023/02/19 07:22:21;;;;;;;2.80;2.60;;;;;;;7.05;98.14;96141.03;5036326;28;20198;-78
2023/02/19 07:24:46;;;;;;;2.20;2.00;;;;;;;7.09;98.36;96134.72;5013855;28;20218;-78
2023/02/19 07:27:11;;;;;;;2.90;2.20;;;;;;;7.07;98.03;96117.72;5027781;28;20214;-79
2023/02/19 07:29:37;;;;;;;2.67;2.47;;;;;;;6.93;97.90;96123.03;5006702;28;20261;-78
2023/02/19 07:32:02;;;;;;;2.20;2.00;;;;;;;7.00;97.54;96125.06;5022382;28;20187;-79
2023/02/19 07:34:27;;;;;;;2.40;2.20;;;;;;;7.15;95.73;96120.53;5010674;28;20243;-78
2023/02/19 07:36:53;;;;;;;2.53;1.70;;;;;;;7.10;95.25;96131.22;5016348;28;20191;-79
2023/02/19 07:39:18;;;;;;;1.70;1.60;;;;;;;7.28;93.77;96139.38;5037241;28;20190;-78
2023/02/19 07:41:43;;;;;;;1.53;1.43;;;;;;;7.33;92.18;96133.84;5016477;28;20198;-78
2023/02/19 07:44:12;;;;;;;1.70;1.60;;;;;;;7.31;92.44;96130.56;5027094;28;20210;-79
2023/02/19 07:46:37;;;;;;;2.13;1.67;;;;;;;7.24;92.27;96140.50;5034501;28;20258;-79
2023/02/19 07:49:03;;;;;;;3.13;1.93;;;;;;;7.39;92.93;96123.06;5036721;28;20234;-78
2023/02/19 07:51:28;;;;;;;2.90;2.00;;;;;;;7.28;93.37;96147.13;5013444;28;20200;-78
2023/02/19 07:53:53;;;;;;;2.03;1.80;;;;;;;7.25;94.20;96154.28;5024371;28;20194;-79
2023/02/19 07:56:19;;;;;;;1.33;1.23;;;;;;;7.27;94.21;96154.97;5020065;28;20183;-79
2023/02/19 07:58:45;;;;;;;1.53;1.10;;;;;;;7.35;95.98;96157.84;5025595;28;20179;-79
2023/02/19 08:02:58;;;;;;;0.93;0.90;;;;;;;7.23;97.44;96163.88;5013500;28;20199;-79
2023/02/19 08:04:04;;;;;;;1.90;1.80;;;;;;;7.36;97.49;96167.22;5035633;28;20245;-77
2023/02/19 08:06:29;;;;;;;1.40;1.30;;;;;;;7.35;97.26;96175.91;5034416;28;20190;-78
2023/02/19 08:08:56;;;;;;;1.40;1.30;;;;;;;7.41;95.61;96175.44;5030302;28;20533;-79
2023/02/19 08:14:05;;;;;;;1.20;1.10;;;;;;;7.67;94.77;96200.19;5032946;28;20217;-78
2023/02/19 08:16:31;;;;;;;1.30;1.20;;;;;;;7.60;94.15;96206.78;5030265;28;20195;-78
2023/02/19 08:18:56;;;;;;;1.30;1.20;;;;;;;7.52;95.14;96200.53;5025334;28;20191;-79
2023/02/19 08:21:22;;;;;;;1.60;1.50;;;;;;;7.61;94.64;96220.53;5003992;28;20261;-78
2023/02/19 08:23:48;;;;;;;3.00;1.93;;;;;;;7.60;93.95;96214.53;5023386;28;20218;-78
2023/02/19 08:26:14;;;;;;;2.57;1.53;;;;;;;7.53;93.99;96226.25;5028254;28;20250;-79
2023/02/19 08:28:40;;;;;;;3.80;3.40;;;;;;;7.60;94.33;96235.22;5036438;28;20183;-79
2023/02/19 08:31:06;;;;;;;2.70;2.50;;;;;;;7.57;94.52;96240.59;5032289;28;20189;-78
2023/02/19 08:33:32;;;;;;;4.33;4.00;;;;;;;7.37;95.12;96246.38;5033293;28;20202;-78
2023/02/19 08:36:03;;;;;;;3.40;2.57;;;;;;;7.43;94.78;96253.69;5045426;28;20242;-79
2023/02/19 08:38:28;;;;;;;4.20;3.23;;;;;;;7.26;94.02;96246.34;5041860;28;20186;-78
2023/02/19 08:40:54;;;;;;;3.17;2.73;;;;;;;7.35;93.51;96240.50;5031004;28;20175;-77
2023/02/19 08:43:19;;;;;;;6.03;5.27;;;;;;;7.44;93.67;96251.94;5016375;28;20226;-78
2023/02/19 08:45:46;;;;;;;4.37;3.33;;;;;;;7.23;93.69;96244.78;5017200;28;20189;-79
2023/02/19 08:48:12;;;;;;;3.17;2.57;;;;;;;7.35;93.56;96240.50;5024407;28;20187;-78
2023/02/19 08:50:37;;;;;;;6.30;5.70;;;;;;;7.52;92.69;96257.38;5027776;28;20193;-78
2023/02/19 08:53:04;;;;;;;4.47;4.07;;;;;;;7.40;92.12;96248.75;5014692;28;20214;-79
2023/02/19 08:55:29;;;;;;;5.53;3.27;;;;;;;7.46;92.60;96252.66;5018264;28;20198;-78
2023/02/19 08:57:55;;;;;;;4.17;2.40;;;;;;;7.47;91.63;96257.69;5021283;28;20677;-79
2023/02/19 09:00:20;;;;;;;2.80;2.40;;;;;;;7.53;91.18;96253.84;5038014;28;20190;-79
2023/02/19 09:02:46;;;;;;;2.87;2.40;;;;;;;7.64;90.69;96257.31;5041896;28;20206;-79
2023/02/19 09:05:12;;;;;;;3.27;2.70;;;;;;;7.73;89.68;96249.81;5027326;28;20754;-79
2023/02/19 09:07:38;;;;;;;3.67;2.43;;;;;;;7.79;88.70;96250.19;5039314;28;20230;-78
2023/02/19 09:10:03;;;;;;;3.43;2.07;;;;;;;7.79;88.66;96265.69;5016613;28;20190;-79
2023/02/19 09:12:29;;;;;;;2.77;2.00;;;;;;;8.09;87.41;96269.53;5011764;28;20191;-79
2023/02/19 09:14:54;;;;;;;3.80;2.00;;;;;;;7.66;87.08;96270.09;5011356;28;21095;-79
2023/02/19 09:17:19;;;;;;;3.03;2.00;;;;;;;7.83;87.51;96267.09;5031604;28;20190;-78
2023/02/19 09:19:45;;;;;;;2.30;2.10;;;;;;;8.06;87.26;96286.09;5017776;28;20292;-79
2023/02/19 09:22:10;;;;;;;6.03;2.40;;;;;;;7.85;88.37;96290.25;5037189;28;20209;-78
2023/02/19 09:24:35;;;;;;;3.93;2.40;;;;;;;7.99;87.65;96287.50;5029950;28;20213;-77
2023/02/19 09:27:01;;;;;;;4.60;2.20;;;;;;;7.96;87.74;96292.91;5031296;28;20194;-78
2023/02/19 09:29:27;;;;;;;2.50;2.17;;;;;;;8.00;87.69;96298.66;5038561;28;20194;-78
2023/02/19 09:31:59;;;;;;;3.70;2.70;;;;;;;8.13;87.28;96296.84;5022737;28;20195;-79
2023/02/19 09:34:26;;;;;;;2.70;2.43;;;;;;;8.14;86.92;96301.06;5025311;28;20608;-79
2023/02/19 09:36:51;;;;;;;4.43;2.23;;;;;;;8.09;86.77;96295.41;5019025;28;20212;-78
2023/02/19 09:39:17;;;;;;;3.53;2.83;;;;;;;8.05;87.48;96292.22;5022930;28;20655;-78
2023/02/19 09:41:48;;;;;;;4.30;2.50;;;;;;;8.12;86.81;96295.97;5013913;28;20199;-78
2023/02/19 09:44:22;;;;;;;2.30;2.10;;;;;;;8.07;86.47;96313.63;5016531;28;20237;-79
2023/02/19 09:46:49;;;;;;;4.83;3.03;;;;;;;8.13;86.75;96300.25;5038547;28;20190;-79
2023/02/19 09:49:16;;;;;;;3.27;2.23;;;;;;;8.26;85.96;96309.66;5037865;28;20666;-79
2023/02/19 09:51:46;;;;;;;4.00;2.50;;;;;;;8.48;84.81;96315.75;5034202;28;20588;-79
2023/02/19 09:54:19;;;;;;;3.03;1.90;;;;;;;8.33;85.51;96316.03;5038086;28;20206;-79
2023/02/19 09:56:45;;;;;;;3.80;2.40;;;;;;;8.19;85.17;96330.00;5034312;28;20191;-79
2023/02/19 09:59:18;;;;;;;2.80;2.30;;;;;;;8.56;83.88;96311.72;5030329;28;20195;-79
2023/02/19 10:01:44;;;;;;;4.17;2.33;;;;;;;8.45;84.67;96322.91;5018226;28;20190;-78
2023/02/19 10:04:09;;;;;;;3.33;1.80;;;;;;;8.40;84.06;96306.91;5039790;28;20218;-78
2023/02/19 10:06:36;;;;;;;2.33;1.80;;;;;;;8.16;83.86;96310.34;5026349;28;20278;-79
2023/02/19 10:09:24;;;;;;;3.43;1.80;;;;;;;8.48;83.01;96330.41;5019049;28;20666;-79
2023/02/19 10:11:50;;;;;;;4.60;2.43;;;;;;;8.29;83.04;96327.53;5026254;28;20213;-79
2023/02/19 10:14:30;;;;;;;4.13;2.10;;;;;;;8.31;82.84;96323.91;5028989;28;20203;-78
2023/02/19 10:16:57;;;;;;;33.93;15.10;;;;;;;8.61;82.32;96325.97;5033913;28;20194;-78
2023/02/19 10:19:23;;;;;;;8.67;5.70;;;;;;;8.51;82.75;96338.81;5042953;28;20191;-79
2023/02/19 10:21:48;;;;;;;8.63;4.57;;;;;;;8.40;83.81;96346.56;5027172;28;20225;-79
2023/02/19 10:24:25;;;;;;;4.07;2.87;;;;;;;8.41;82.98;96347.38;5031113;28;20203;-79
2023/02/19 10:26:51;;;;;;;3.03;1.80;;;;;;;8.23;82.90;96345.19;5035223;28;20279;-78
2023/02/19 10:29:16;;;;;;;4.80;2.70;;;;;;;8.40;83.40;96343.13;5026460;28;20281;-78
2023/02/19 10:31:41;;;;;;;7.33;4.70;;;;;;;8.34;83.06;96351.31;5024202;28;20193;-78
2023/02/19 10:34:16;;;;;;;9.53;8.57;;;;;;;8.58;81.87;96366.81;5035670;28;20204;-79
2023/02/19 10:36:44;;;;;;;12.77;9.53;;;;;;;8.77;81.28;96361.91;5039503;28;20238;-78
2023/02/19 10:39:21;;;;;;;4.27;3.93;;;;;;;8.68;82.01;96366.00;5026513;28;20186;-79
2023/02/19 10:41:48;;;;;;;4.90;3.47;;;;;;;8.70;80.90;96369.31;5035057;28;20209;-78
2023/02/19 10:44:17;;;;;;;5.20;2.43;;;;;;;8.50;81.82;96364.81;5015096;28;20213;-79
2023/02/19 10:46:44;;;;;;;4.70;2.03;;;;;;;8.73;82.07;96360.47;5009783;28;20217;-78
2023/02/19 10:49:31;;;;;;;2.53;1.80;;;;;;;8.60;81.40;96354.59;5030390;28;20179;-79
2023/02/19 10:52:01;;;;;;;3.70;2.20;;;;;;;8.67;81.70;96372.13;5035356;28;20174;-79
2023/02/19 10:54:34;;;;;;;6.10;2.07;;;;;;;8.40;81.51;96367.25;5024126;28;20213;-79
2023/02/19 10:57:14;;;;;;;3.17;2.00;;;;;;;8.73;80.31;96369.06;5039377;28;20595;-78
2023/02/19 10:59:57;;;;;;;5.17;2.00;;;;;;;8.88;79.98;96369.66;5033724;28;20178;-78
2023/02/19 11:02:23;;;;;;;5.03;2.87;;;;;;;8.61;80.30;96376.94;5014161;28;20604;-79
2023/02/19 11:05:08;;;;;;;3.27;2.10;;;;;;;8.70;80.79;96377.06;5008438;28;20214;-79
2023/02/19 11:07:41;;;;;;;3.90;2.20;;;;;;;8.63;81.08;96365.53;5032394;28;20210;-78
2023/02/19 11:10:19;;;;;;;5.33;2.73;;;;;;;8.61;81.46;96364.81;5012740;28;20186;-78
2023/02/19 11:12:47;;;;;;;3.27;2.13;;;;;;;8.68;81.38;96370.38;5037877;28;20639;-79
2023/02/19 11:15:20;;;;;;;2.90;1.97;;;;;;;8.98;79.99;96370.59;5019604;28;20183;-79
2023/02/19 11:17:53;;;;;;;2.33;1.83;;;;;;;9.02;79.42;96368.63;5031087;28;20175;-79
2023/02/19 11:20:19;;;;;;;10.03;6.00;;;;;;;8.99;79.50;96374.84;5022096;28;20178;-78
2023/02/19 11:22:48;;;;;;;10.17;6.10;;;;;;;8.99;79.61;96371.44;5025747;28;20562;-79
2023/02/19 11:25:16;;;;;;;4.17;2.17;;;;;;;8.92;77.64;96372.84;5029830;28;20179;-79
2023/02/19 11:28:05;;;;;;;5.07;3.80;;;;;;;9.47;76.74;96368.59;5028860;28;20182;-78
2023/02/19 11:30:37;;;;;;;8.40;5.43;;;;;;;9.81;75.55;96374.53;5025107;28;20191;-79
2023/02/19 11:33:18;;;;;;;7.13;5.90;;;;;;;9.81;74.91;96362.38;5022478;28;20262;-79
2023/02/19 11:35:44;;;;;;;3.23;2.93;;;;;;;9.57;74.91;96361.72;5036311;28;20185;-78
2023/02/19 11:38:12;;;;;;;2.10;1.90;;;;;;;9.34;76.67;96350.56;5026004;28;20190;-79
2023/02/19 11:41:23;;;;;;;2.97;1.80;;;;;;;9.45;76.25;96352.31;5021110;28;20193;-79
2023/02/19 11:44:13;;;;;;;3.97;1.80;;;;;;;9.47;75.64;96359.03;4992667;28;20636;-79
2023/02/19 11:46:54;;;;;;;3.40;1.63;;;;;;;9.21;76.10;96357.66;5020410;28;20444;-79
2023/02/19 11:49:36;;;;;;;2.63;1.40;;;;;;;9.63;75.47;96361.25;5037658;28;20227;-78
2023/02/19 11:52:20;;;;;;;5.63;2.67;;;;;;;9.82;75.05;96369.19;5023576;28;20555;-79
2023/02/19 11:54:51;;;;;;;2.67;1.60;;;;;;;9.72;74.37;96373.47;5055647;28;20211;-78
2023/02/19 11:57:25;;;;;;;3.23;1.40;;;;;;;9.55;75.03;96374.00;5022031;28;20194;-79
2023/02/19 11:59:54;;;;;;;2.77;2.00;;;;;;;9.61;75.21;96381.25;5032646;28;20693;-78
2023/02/19 12:02:43;;;;;;;2.00;1.70;;;;;;;9.77;73.82;96389.47;5010101;28;20262;-78
2023/02/19 12:05:18;;;;;;;2.53;1.60;;;;;;;9.45;74.88;96384.22;5019026;28;20201;-79
2023/02/19 12:07:58;;;;;;;2.80;1.80;;;;;;;9.31;75.27;96381.91;5023270;28;20187;-78